sensor_id;sensor_type;location;lat;lon;timestamp;temperature;humidity
8313;DHT22;4194;43.408;24.626;2022-12-29T00:02:11;3.60;99.90
8313;DHT22;4194;43.408;24.626;2022-12-29T00:07:04;3.70;99.90
8313;DHT22;4194;43.408;24.626;2022-12-29T00:09:30;3.80;99.90
8313;DHT22;4194;43.408;24.626;2022-12-29T00:11:56;4.70;99.90
8313;DHT22;4194;43.408;24.626;2022-12-29T00:14:22;3.60;99.90
8313;DHT22;4194;43.408;24.626;2022-12-29T00:17:06;2.70;99.90
8313;DHT22;4194;43.408;24.626;2022-12-29T00:19:32;4.10;99.90
8313;DHT22;4194;43.408;24.626;2022-12-29T00:22:16;3.10;99.90
8313;DHT22;4194;43.408;24.626;2022-12-29T00:25:00;3.90;99.90
8313;DHT22;4194;43.408;24.626;2022-12-29T00:27:44;3.40;99.90
8313;DHT22;4194;43.408;24.626;2022-12-29T00:30:28;4.30;99.90
8313;DHT22;4194;43.408;24.626;2022-12-29T00:33:15;4.00;99.90
8313;DHT22;4194;43.408;24.626;2022-12-29T00:36:16;3.00;99.90
8313;DHT22;4194;43.408;24.626;2022-12-29T00:38:48;4.80;99.90
8313;DHT22;4194;43.408;24.626;2022-12-29T00:41:33;5.00;99.90
8313;DHT22;4194;43.408;24.626;2022-12-29T00:44:17;5.00;99.90
8313;DHT22;4194;43.408;24.626;2022-12-29T00:46:43;3.90;99.90
8313;DHT22;4194;43.408;24.626;2022-12-29T00:49:12;3.50;99.90
8313;DHT22;4194;43.408;24.626;2022-12-29T00:52:07;3.90;99.90
8313;DHT22;4194;43.408;24.626;2022-12-29T00:54:37;4.40;99.90
8313;DHT22;4194;43.408;24.626;2022-12-29T00:57:03;4.60;99.90
8313;DHT22;4194;43.408;24.626;2022-12-29T00:59:29;4.10;99.90
8313;DHT22;4194;43.408;24.626;2022-12-29T01:01:55;2.60;99.90
8313;DHT22;4194;43.408;24.626;2022-12-29T01:04:23;3.70;99.90
8313;DHT22;4194;43.408;24.626;2022-12-29T01:06:49;4.50;99.90
8313;DHT22;4194;43.408;24.626;2022-12-29T01:09:15;4.80;99.90
8313;DHT22;4194;43.408;24.626;2022-12-29T01:12:00;4.00;99.90
8313;DHT22;4194;43.408;24.626;2022-12-29T01:14:25;5.70;99.90
8313;DHT22;4194;43.408;24.626;2022-12-29T01:16:52;2.70;99.90
8313;DHT22;4194;43.408;24.626;2022-12-29T01:19:18;3.20;99.90
8313;DHT22;4194;43.408;24.626;2022-12-29T01:21:44;4.20;99.90
8313;DHT22;4194;43.408;24.626;2022-12-29T01:24:10;4.50;99.90
8313;DHT22;4194;43.408;24.626;2022-12-29T01:31:28;3.90;99.90
8313;DHT22;4194;43.408;24.626;2022-12-29T01:33:54;4.40;99.90
8313;DHT22;4194;43.408;24.626;2022-12-29T01:36:19;4.60;99.90
8313;DHT22;4194;43.408;24.626;2022-12-29T01:38:45;4.00;99.90
8313;DHT22;4194;43.408;24.626;2022-12-29T01:41:12;2.60;99.90
8313;DHT22;4194;43.408;24.626;2022-12-29T01:43:59;3.10;99.90
8313;DHT22;4194;43.408;24.626;2022-12-29T01:49:05;4.00;99.90
8313;DHT22;4194;43.408;24.626;2022-12-29T01:51:47;2.90;99.90
8313;DHT22;4194;43.408;24.626;2022-12-29T01:57:16;5.30;99.90
8313;DHT22;4194;43.408;24.626;2022-12-29T01:59:51;3.50;99.90
8313;DHT22;4194;43.408;24.626;2022-12-29T02:02:19;4.70;99.90
8313;DHT22;4194;43.408;24.626;2022-12-29T02:04:45;4.30;99.90
8313;DHT22;4194;43.408;24.626;2022-12-29T02:07:20;4.70;99.90
8313;DHT22;4194;43.408;24.626;2022-12-29T02:09:48;4.20;99.90
8313;DHT22;4194;43.408;24.626;2022-12-29T02:12:15;4.20;99.90
8313;DHT22;4194;43.408;24.626;2022-12-29T02:14:41;5.10;99.90
8313;DHT22;4194;43.408;24.626;2022-12-29T02:22:40;5.70;99.90
8313;DHT22;4194;43.408;24.626;2022-12-29T02:36:47;6.30;99.90
8313;DHT22;4194;43.408;24.626;2022-12-29T02:39:27;6.10;99.90
8313;DHT22;4194;43.408;24.626;2022-12-29T02:47:14;5.70;99.90
8313;DHT22;4194;43.408;24.626;2022-12-29T02:52:40;4.70;99.90
8313;DHT22;4194;43.408;24.626;2022-12-29T02:55:10;5.30;99.90
8313;DHT22;4194;43.408;24.626;2022-12-29T02:57:37;3.90;99.90
8313;DHT22;4194;43.408;24.626;2022-12-29T03:00:14;4.50;99.90
8313;DHT22;4194;43.408;24.626;2022-12-29T03:03:05;4.50;99.90
8313;DHT22;4194;43.408;24.626;2022-12-29T03:11:37;5.40;99.90
8313;DHT22;4194;43.408;24.626;2022-12-29T03:18:23;3.50;99.90
8313;DHT22;4194;43.408;24.626;2022-12-29T03:21:00;2.90;99.90
8313;DHT22;4194;43.408;24.626;2022-12-29T03:23:29;4.20;99.90
8313;DHT22;4194;43.408;24.626;2022-12-29T03:25:58;2.60;99.90
8313;DHT22;4194;43.408;24.626;2022-12-29T03:28:30;3.90;99.90
8313;DHT22;4194;43.408;24.626;2022-12-29T03:30:58;4.80;99.90
8313;DHT22;4194;43.408;24.626;2022-12-29T03:33:27;3.80;99.90
8313;DHT22;4194;43.408;24.626;2022-12-29T03:35:58;4.10;99.90
8313;DHT22;4194;43.408;24.626;2022-12-29T03:40:59;3.50;99.90
8313;DHT22;4194;43.408;24.626;2022-12-29T03:43:26;4.60;99.90
8313;DHT22;4194;43.408;24.626;2022-12-29T03:45:52;2.80;99.90
8313;DHT22;4194;43.408;24.626;2022-12-29T03:48:18;4.00;99.90
8313;DHT22;4194;43.408;24.626;2022-12-29T03:50:44;3.90;99.90
8313;DHT22;4194;43.408;24.626;2022-12-29T03:53:09;3.20;99.90
8313;DHT22;4194;43.408;24.626;2022-12-29T03:55:35;2.30;99.90
8313;DHT22;4194;43.408;24.626;2022-12-29T03:58:01;4.00;99.90
8313;DHT22;4194;43.408;24.626;2022-12-29T04:02:53;3.80;99.90
8313;DHT22;4194;43.408;24.626;2022-12-29T04:05:19;3.20;99.90
8313;DHT22;4194;43.408;24.626;2022-12-29T04:07:45;3.60;99.90
8313;DHT22;4194;43.408;24.626;2022-12-29T04:10:11;2.90;99.90
8313;DHT22;4194;43.408;24.626;2022-12-29T04:12:36;2.80;99.90
8313;DHT22;4194;43.408;24.626;2022-12-29T04:15:02;2.30;99.90
8313;DHT22;4194;43.408;24.626;2022-12-29T04:17:28;2.90;99.90
8313;DHT22;4194;43.408;24.626;2022-12-29T04:19:54;3.60;99.90
8313;DHT22;4194;43.408;24.626;2022-12-29T04:22:42;2.50;99.90
8313;DHT22;4194;43.408;24.626;2022-12-29T04:25:08;3.70;99.90
8313;DHT22;4194;43.408;24.626;2022-12-29T04:27:34;2.70;99.90
8313;DHT22;4194;43.408;24.626;2022-12-29T04:29:59;4.10;99.90
8313;DHT22;4194;43.408;24.626;2022-12-29T04:32:25;2.80;99.90
8313;DHT22;4194;43.408;24.626;2022-12-29T04:34:51;4.10;99.90
8313;DHT22;4194;43.408;24.626;2022-12-29T04:37:17;2.40;99.90
8313;DHT22;4194;43.408;24.626;2022-12-29T04:39:42;2.10;99.90
8313;DHT22;4194;43.408;24.626;2022-12-29T04:42:08;2.20;99.90
8313;DHT22;4194;43.408;24.626;2022-12-29T04:44:33;3.00;99.90
8313;DHT22;4194;43.408;24.626;2022-12-29T04:49:25;2.30;99.90
8313;DHT22;4194;43.408;24.626;2022-12-29T04:51:51;2.00;99.90
8313;DHT22;4194;43.408;24.626;2022-12-29T04:54:16;3.70;99.90
8313;DHT22;4194;43.408;24.626;2022-12-29T04:56:42;1.90;99.90
8313;DHT22;4194;43.408;24.626;2022-12-29T04:59:08;3.50;99.90
8313;DHT22;4194;43.408;24.626;2022-12-29T05:01:33;2.20;99.90
8313;DHT22;4194;43.408;24.626;2022-12-29T05:03:59;1.70;99.90
8313;DHT22;4194;43.408;24.626;2022-12-29T05:06:25;1.80;99.90
8313;DHT22;4194;43.408;24.626;2022-12-29T05:08:50;2.90;99.90
8313;DHT22;4194;43.408;24.626;2022-12-29T05:11:16;1.80;99.90
8313;DHT22;4194;43.408;24.626;2022-12-29T05:13:45;2.50;99.90
8313;DHT22;4194;43.408;24.626;2022-12-29T05:16:11;0.80;99.90
8313;DHT22;4194;43.408;24.626;2022-12-29T05:18:36;0.70;99.90
8313;DHT22;4194;43.408;24.626;2022-12-29T05:21:02;0.90;99.90
8313;DHT22;4194;43.408;24.626;2022-12-29T05:25:54;1.20;99.90
8313;DHT22;4194;43.408;24.626;2022-12-29T05:28:20;2.10;99.90
8313;DHT22;4194;43.408;24.626;2022-12-29T05:30:48;1.60;99.90
8313;DHT22;4194;43.408;24.626;2022-12-29T05:33:15;0.60;99.90
8313;DHT22;4194;43.408;24.626;2022-12-29T05:35:41;2.00;99.90
8313;DHT22;4194;43.408;24.626;2022-12-29T05:38:07;0.80;99.90
8313;DHT22;4194;43.408;24.626;2022-12-29T05:40:32;2.00;99.90
8313;DHT22;4194;43.408;24.626;2022-12-29T05:42:58;2.70;99.90
8313;DHT22;4194;43.408;24.626;2022-12-29T05:45:24;2.10;99.90
8313;DHT22;4194;43.408;24.626;2022-12-29T05:47:50;2.00;99.90
8313;DHT22;4194;43.408;24.626;2022-12-29T05:50:15;0.70;99.90
8313;DHT22;4194;43.408;24.626;2022-12-29T05:52:41;1.90;99.90
8313;DHT22;4194;43.408;24.626;2022-12-29T05:55:07;0.70;99.90
8313;DHT22;4194;43.408;24.626;2022-12-29T05:57:33;2.10;99.90
8313;DHT22;4194;43.408;24.626;2022-12-29T05:59:58;2.20;99.90
8313;DHT22;4194;43.408;24.626;2022-12-29T06:02:24;2.80;99.90
8313;DHT22;4194;43.408;24.626;2022-12-29T06:04:50;0.40;99.90
8313;DHT22;4194;43.408;24.626;2022-12-29T06:07:15;1.20;99.90
8313;DHT22;4194;43.408;24.626;2022-12-29T06:09:41;0.60;99.90
8313;DHT22;4194;43.408;24.626;2022-12-29T06:12:07;0.90;99.90
8313;DHT22;4194;43.408;24.626;2022-12-29T06:14:32;2.70;99.90
8313;DHT22;4194;43.408;24.626;2022-12-29T06:19:25;2.10;99.90
8313;DHT22;4194;43.408;24.626;2022-12-29T06:21:51;0.80;99.90
8313;DHT22;4194;43.408;24.626;2022-12-29T06:24:18;1.30;99.90
8313;DHT22;4194;43.408;24.626;2022-12-29T06:26:43;1.30;99.90
8313;DHT22;4194;43.408;24.626;2022-12-29T06:29:09;1.80;99.90
8313;DHT22;4194;43.408;24.626;2022-12-29T06:31:35;1.20;99.90
8313;DHT22;4194;43.408;24.626;2022-12-29T06:34:00;1.90;99.90
8313;DHT22;4194;43.408;24.626;2022-12-29T06:36:26;2.00;99.90
8313;DHT22;4194;43.408;24.626;2022-12-29T06:38:52;2.30;99.90
8313;DHT22;4194;43.408;24.626;2022-12-29T06:41:19;1.50;99.90
8313;DHT22;4194;43.408;24.626;2022-12-29T06:43:45;1.10;99.90
8313;DHT22;4194;43.408;24.626;2022-12-29T06:46:11;1.90;99.90
8313;DHT22;4194;43.408;24.626;2022-12-29T06:48:36;1.00;99.90
8313;DHT22;4194;43.408;24.626;2022-12-29T06:51:02;1.70;99.90
8313;DHT22;4194;43.408;24.626;2022-12-29T06:53:28;0.80;99.90
8313;DHT22;4194;43.408;24.626;2022-12-29T06:55:54;3.40;99.90
8313;DHT22;4194;43.408;24.626;2022-12-29T06:58:20;2.10;99.90
8313;DHT22;4194;43.408;24.626;2022-12-29T07:00:45;3.40;99.90
8313;DHT22;4194;43.408;24.626;2022-12-29T07:03:11;1.70;99.90
8313;DHT22;4194;43.408;24.626;2022-12-29T07:05:37;0.60;99.90
8313;DHT22;4194;43.408;24.626;2022-12-29T07:08:02;0.70;99.90
8313;DHT22;4194;43.408;24.626;2022-12-29T07:10:29;2.10;99.90
8313;DHT22;4194;43.408;24.626;2022-12-29T07:12:54;1.90;99.90
8313;DHT22;4194;43.408;24.626;2022-12-29T07:15:20;2.40;99.90
8313;DHT22;4194;43.408;24.626;2022-12-29T07:17:46;0.80;99.90
8313;DHT22;4194;43.408;24.626;2022-12-29T07:20:11;2.00;99.90
8313;DHT22;4194;43.408;24.626;2022-12-29T07:22:37;1.20;99.90
8313;DHT22;4194;43.408;24.626;2022-12-29T07:25:04;2.60;99.90
8313;DHT22;4194;43.408;24.626;2022-12-29T07:27:30;2.60;99.90
8313;DHT22;4194;43.408;24.626;2022-12-29T07:29:55;3.60;99.90
8313;DHT22;4194;43.408;24.626;2022-12-29T07:32:21;2.40;99.90
8313;DHT22;4194;43.408;24.626;2022-12-29T07:34:47;4.00;99.90
8313;DHT22;4194;43.408;24.626;2022-12-29T07:37:14;2.80;99.90
8313;DHT22;4194;43.408;24.626;2022-12-29T07:39:40;3.80;99.90
8313;DHT22;4194;43.408;24.626;2022-12-29T07:42:06;3.20;99.90
8313;DHT22;4194;43.408;24.626;2022-12-29T07:44:31;3.90;99.90
8313;DHT22;4194;43.408;24.626;2022-12-29T07:46:57;4.00;99.90
8313;DHT22;4194;43.408;24.626;2022-12-29T07:49:23;4.80;99.90
8313;DHT22;4194;43.408;24.626;2022-12-29T07:51:49;3.60;99.90
8313;DHT22;4194;43.408;24.626;2022-12-29T07:54:14;3.70;99.90
8313;DHT22;4194;43.408;24.626;2022-12-29T07:56:43;4.30;99.90
8313;DHT22;4194;43.408;24.626;2022-12-29T07:59:09;3.90;99.90
8313;DHT22;4194;43.408;24.626;2022-12-29T08:01:35;5.00;99.90
8313;DHT22;4194;43.408;24.626;2022-12-29T08:04:01;4.70;99.90
8313;DHT22;4194;43.408;24.626;2022-12-29T08:06:26;5.90;99.90
8313;DHT22;4194;43.408;24.626;2022-12-29T08:08:52;4.90;99.90
8313;DHT22;4194;43.408;24.626;2022-12-29T08:11:18;4.30;99.90
8313;DHT22;4194;43.408;24.626;2022-12-29T08:13:43;4.20;99.90
8313;DHT22;4194;43.408;24.626;2022-12-29T08:16:09;5.10;99.90
8313;DHT22;4194;43.408;24.626;2022-12-29T08:18:35;5.40;99.90
8313;DHT22;4194;43.408;24.626;2022-12-29T08:21:04;6.30;99.90
8313;DHT22;4194;43.408;24.626;2022-12-29T08:23:30;5.70;99.90
8313;DHT22;4194;43.408;24.626;2022-12-29T08:26:00;4.90;99.90
8313;DHT22;4194;43.408;24.626;2022-12-29T08:28:26;4.30;99.90
8313;DHT22;4194;43.408;24.626;2022-12-29T08:30:52;4.60;99.90
8313;DHT22;4194;43.408;24.626;2022-12-29T08:33:18;4.70;99.90
8313;DHT22;4194;43.408;24.626;2022-12-29T08:35:44;6.20;99.90
8313;DHT22;4194;43.408;24.626;2022-12-29T08:38:10;6.00;99.90
8313;DHT22;4194;43.408;24.626;2022-12-29T08:40:37;6.20;99.90
8313;DHT22;4194;43.408;24.626;2022-12-29T08:43:02;6.20;99.90
8313;DHT22;4194;43.408;24.626;2022-12-29T08:45:28;5.30;99.90
8313;DHT22;4194;43.408;24.626;2022-12-29T08:47:54;5.00;99.90
8313;DHT22;4194;43.408;24.626;2022-12-29T08:50:19;4.20;99.90
8313;DHT22;4194;43.408;24.626;2022-12-29T08:52:45;6.20;99.90
8313;DHT22;4194;43.408;24.626;2022-12-29T08:55:11;5.80;99.90
8313;DHT22;4194;43.408;24.626;2022-12-29T08:57:36;6.50;99.90
8313;DHT22;4194;43.408;24.626;2022-12-29T09:00:04;6.20;99.90
8313;DHT22;4194;43.408;24.626;2022-12-29T09:02:30;5.40;99.90
8313;DHT22;4194;43.408;24.626;2022-12-29T09:04:55;5.90;99.90
8313;DHT22;4194;43.408;24.626;2022-12-29T09:07:23;4.30;99.90
8313;DHT22;4194;43.408;24.626;2022-12-29T09:09:49;5.30;99.90
8313;DHT22;4194;43.408;24.626;2022-12-29T09:12:16;6.00;99.90
8313;DHT22;4194;43.408;24.626;2022-12-29T09:17:10;5.70;99.90
8313;DHT22;4194;43.408;24.626;2022-12-29T09:19:55;5.30;99.90
8313;DHT22;4194;43.408;24.626;2022-12-29T09:22:21;6.90;99.90
8313;DHT22;4194;43.408;24.626;2022-12-29T09:24:46;6.20;99.90
8313;DHT22;4194;43.408;24.626;2022-12-29T09:27:12;5.60;99.90
8313;DHT22;4194;43.408;24.626;2022-12-29T09:29:38;5.40;99.90
8313;DHT22;4194;43.408;24.626;2022-12-29T09:32:03;6.20;99.90
8313;DHT22;4194;43.408;24.626;2022-12-29T09:34:29;6.30;99.90
8313;DHT22;4194;43.408;24.626;2022-12-29T09:36:55;6.40;99.90
8313;DHT22;4194;43.408;24.626;2022-12-29T09:39:22;6.40;99.90
8313;DHT22;4194;43.408;24.626;2022-12-29T09:44:46;6.60;99.90
8313;DHT22;4194;43.408;24.626;2022-12-29T09:47:14;6.50;99.90
8313;DHT22;4194;43.408;24.626;2022-12-29T09:49:52;6.60;99.90
8313;DHT22;4194;43.408;24.626;2022-12-29T09:52:22;7.80;99.90
8313;DHT22;4194;43.408;24.626;2022-12-29T09:57:35;6.60;99.90
8313;DHT22;4194;43.408;24.626;2022-12-29T10:09:07;6.70;99.90
8313;DHT22;4194;43.408;24.626;2022-12-29T10:14:49;7.30;99.90
8313;DHT22;4194;43.408;24.626;2022-12-29T10:25:22;8.60;99.90
8313;DHT22;4194;43.408;24.626;2022-12-29T10:27:50;8.60;99.90
8313;DHT22;4194;43.408;24.626;2022-12-29T10:30:16;9.10;99.60
8313;DHT22;4194;43.408;24.626;2022-12-29T10:33:15;8.60;98.80
8313;DHT22;4194;43.408;24.626;2022-12-29T10:35:36;8.90;99.50
8313;DHT22;4194;43.408;24.626;2022-12-29T10:41:11;9.10;99.30
8313;DHT22;4194;43.408;24.626;2022-12-29T10:43:50;9.60;99.90
8313;DHT22;4194;43.408;24.626;2022-12-29T10:46:36;8.30;99.70
8313;DHT22;4194;43.408;24.626;2022-12-29T10:49:04;8.10;99.90
8313;DHT22;4194;43.408;24.626;2022-12-29T10:51:36;9.10;99.90
8313;DHT22;4194;43.408;24.626;2022-12-29T10:54:29;7.80;99.90
8313;DHT22;4194;43.408;24.626;2022-12-29T10:57:47;8.50;99.90
8313;DHT22;4194;43.408;24.626;2022-12-29T10:59:47;8.90;99.90
8313;DHT22;4194;43.408;24.626;2022-12-29T11:05:49;7.60;99.90
8313;DHT22;4194;43.408;24.626;2022-12-29T11:08:26;9.00;99.90
8313;DHT22;4194;43.408;24.626;2022-12-29T11:11:07;8.90;99.90
8313;DHT22;4194;43.408;24.626;2022-12-29T11:13:46;8.80;99.50
8313;DHT22;4194;43.408;24.626;2022-12-29T11:16:12;9.20;99.20
8313;DHT22;4194;43.408;24.626;2022-12-29T11:18:39;9.10;98.90
8313;DHT22;4194;43.408;24.626;2022-12-29T11:21:23;8.80;99.00
8313;DHT22;4194;43.408;24.626;2022-12-29T11:24:26;10.20;96.50
8313;DHT22;4194;43.408;24.626;2022-12-29T11:26:54;9.40;96.90
8313;DHT22;4194;43.408;24.626;2022-12-29T11:29:28;10.00;95.80
8313;DHT22;4194;43.408;24.626;2022-12-29T11:31:56;10.40;95.20
8313;DHT22;4194;43.408;24.626;2022-12-29T11:34:25;9.40;94.20
8313;DHT22;4194;43.408;24.626;2022-12-29T11:37:00;8.70;93.50
8313;DHT22;4194;43.408;24.626;2022-12-29T11:39:51;10.60;92.90
8313;DHT22;4194;43.408;24.626;2022-12-29T11:42:20;9.70;93.30
8313;DHT22;4194;43.408;24.626;2022-12-29T11:44:49;10.70;93.10
8313;DHT22;4194;43.408;24.626;2022-12-29T11:47:42;10.30;92.10
8313;DHT22;4194;43.408;24.626;2022-12-29T11:50:18;9.60;92.60
8313;DHT22;4194;43.408;24.626;2022-12-29T11:52:45;8.30;91.20
8313;DHT22;4194;43.408;24.626;2022-12-29T11:55:25;10.10;91.80
8313;DHT22;4194;43.408;24.626;2022-12-29T11:57:53;10.10;91.10
8313;DHT22;4194;43.408;24.626;2022-12-29T12:00:23;10.60;90.80
8313;DHT22;4194;43.408;24.626;2022-12-29T12:03:04;10.30;89.80
8313;DHT22;4194;43.408;24.626;2022-12-29T12:11:17;11.50;88.90
8313;DHT22;4194;43.408;24.626;2022-12-29T12:14:04;11.20;87.20
8313;DHT22;4194;43.408;24.626;2022-12-29T12:17:05;11.70;85.00
8313;DHT22;4194;43.408;24.626;2022-12-29T12:19:43;12.00;84.60
8313;DHT22;4194;43.408;24.626;2022-12-29T12:22:19;11.80;82.00
8313;DHT22;4194;43.408;24.626;2022-12-29T12:24:53;13.40;79.30
8313;DHT22;4194;43.408;24.626;2022-12-29T12:30:11;16.50;68.60
8313;DHT22;4194;43.408;24.626;2022-12-29T12:33:04;20.10;59.70
8313;DHT22;4194;43.408;24.626;2022-12-29T12:36:37;22.60;52.60
8313;DHT22;4194;43.408;24.626;2022-12-29T12:41:34;24.80;46.80
8313;DHT22;4194;43.408;24.626;2022-12-29T13:00:13;13.10;64.60
8313;DHT22;4194;43.408;24.626;2022-12-29T13:08:44;11.90;70.00
8313;DHT22;4194;43.408;24.626;2022-12-29T13:11:28;10.00;70.50
8313;DHT22;4194;43.408;24.626;2022-12-29T13:19:17;10.90;75.10
8313;DHT22;4194;43.408;24.626;2022-12-29T13:27:01;9.30;80.50
8313;DHT22;4194;43.408;24.626;2022-12-29T13:32:27;9.40;81.60
8313;DHT22;4194;43.408;24.626;2022-12-29T13:35:24;9.20;81.80
8313;DHT22;4194;43.408;24.626;2022-12-29T13:38:22;10.10;82.00
8313;DHT22;4194;43.408;24.626;2022-12-29T13:41:04;10.60;83.30
8313;DHT22;4194;43.408;24.626;2022-12-29T13:43:33;10.40;84.20
8313;DHT22;4194;43.408;24.626;2022-12-29T13:46:14;8.90;83.70
8313;DHT22;4194;43.408;24.626;2022-12-29T13:48:51;9.10;84.70
8313;DHT22;4194;43.408;24.626;2022-12-29T13:51:19;9.50;85.40
8313;DHT22;4194;43.408;24.626;2022-12-29T13:54:16;8.50;84.60
8313;DHT22;4194;43.408;24.626;2022-12-29T13:57:12;9.20;85.40
8313;DHT22;4194;43.408;24.626;2022-12-29T13:59:58;8.10;84.80
8313;DHT22;4194;43.408;24.626;2022-12-29T14:07:43;9.00;86.80
8313;DHT22;4194;43.408;24.626;2022-12-29T14:13:15;9.20;88.40
8313;DHT22;4194;43.408;24.626;2022-12-29T14:15:44;9.30;88.80
8313;DHT22;4194;43.408;24.626;2022-12-29T14:18:17;8.50;88.60
8313;DHT22;4194;43.408;24.626;2022-12-29T14:20:56;9.00;90.10
8313;DHT22;4194;43.408;24.626;2022-12-29T14:23:38;8.80;90.30
8313;DHT22;4194;43.408;24.626;2022-12-29T14:31:02;8.80;93.30
8313;DHT22;4194;43.408;24.626;2022-12-29T14:33:30;8.70;94.10
8313;DHT22;4194;43.408;24.626;2022-12-29T14:38:28;8.70;96.60
8313;DHT22;4194;43.408;24.626;2022-12-29T14:41:18;8.20;97.50
8313;DHT22;4194;43.408;24.626;2022-12-29T14:49:25;8.20;99.90
8313;DHT22;4194;43.408;24.626;2022-12-29T14:51:55;7.90;99.90
8313;DHT22;4194;43.408;24.626;2022-12-29T14:57:18;7.10;99.90
8313;DHT22;4194;43.408;24.626;2022-12-29T14:59:46;8.70;99.90
8313;DHT22;4194;43.408;24.626;2022-12-29T15:02:19;8.50;99.90
8313;DHT22;4194;43.408;24.626;2022-12-29T15:04:47;6.90;99.90
8313;DHT22;4194;43.408;24.626;2022-12-29T15:07:14;7.50;99.90
8313;DHT22;4194;43.408;24.626;2022-12-29T15:09:45;7.50;99.90
8313;DHT22;4194;43.408;24.626;2022-12-29T15:17:28;8.30;99.90
8313;DHT22;4194;43.408;24.626;2022-12-29T15:19:55;6.80;99.90
8313;DHT22;4194;43.408;24.626;2022-12-29T15:22:22;8.40;99.90
8313;DHT22;4194;43.408;24.626;2022-12-29T15:24:51;6.50;99.90
8313;DHT22;4194;43.408;24.626;2022-12-29T15:27:26;7.10;99.90
8313;DHT22;4194;43.408;24.626;2022-12-29T15:29:57;6.90;99.90
8313;DHT22;4194;43.408;24.626;2022-12-29T15:32:28;6.80;99.90
8313;DHT22;4194;43.408;24.626;2022-12-29T15:34:57;6.60;99.90
8313;DHT22;4194;43.408;24.626;2022-12-29T15:37:27;8.40;99.90
8313;DHT22;4194;43.408;24.626;2022-12-29T15:39:55;6.10;99.90
8313;DHT22;4194;43.408;24.626;2022-12-29T15:45:06;6.70;99.90
8313;DHT22;4194;43.408;24.626;2022-12-29T15:47:34;7.50;99.90
8313;DHT22;4194;43.408;24.626;2022-12-29T15:50:04;5.80;99.90
8313;DHT22;4194;43.408;24.626;2022-12-29T15:52:32;5.60;99.90
8313;DHT22;4194;43.408;24.626;2022-12-29T15:54:58;6.20;99.90
8313;DHT22;4194;43.408;24.626;2022-12-29T15:57:31;6.30;99.90
8313;DHT22;4194;43.408;24.626;2022-12-29T16:00:01;6.00;99.90
8313;DHT22;4194;43.408;24.626;2022-12-29T16:02:27;5.70;99.90
8313;DHT22;4194;43.408;24.626;2022-12-29T16:04:53;6.00;99.90
8313;DHT22;4194;43.408;24.626;2022-12-29T16:07:29;5.90;99.90
8313;DHT22;4194;43.408;24.626;2022-12-29T16:09:58;5.80;99.90
8313;DHT22;4194;43.408;24.626;2022-12-29T16:12:29;5.00;99.90
8313;DHT22;4194;43.408;24.626;2022-12-29T16:15:13;5.20;99.90
8313;DHT22;4194;43.408;24.626;2022-12-29T16:17:57;5.80;99.90
8313;DHT22;4194;43.408;24.626;2022-12-29T16:20:25;5.00;99.90
8313;DHT22;4194;43.408;24.626;2022-12-29T16:25:33;5.80;99.90
8313;DHT22;4194;43.408;24.626;2022-12-29T16:28:01;6.30;99.90
8313;DHT22;4194;43.408;24.626;2022-12-29T16:30:32;6.20;99.90
8313;DHT22;4194;43.408;24.626;2022-12-29T16:33:02;6.10;99.90
8313;DHT22;4194;43.408;24.626;2022-12-29T16:38:20;5.50;99.90
8313;DHT22;4194;43.408;24.626;2022-12-29T16:43:33;5.70;99.90
8313;DHT22;4194;43.408;24.626;2022-12-29T16:50:51;5.10;99.90
8313;DHT22;4194;43.408;24.626;2022-12-29T16:53:26;5.60;99.90
8313;DHT22;4194;43.408;24.626;2022-12-29T16:55:54;5.80;99.90
8313;DHT22;4194;43.408;24.626;2022-12-29T16:58:25;5.30;99.90
8313;DHT22;4194;43.408;24.626;2022-12-29T17:00:56;4.10;99.90
8313;DHT22;4194;43.408;24.626;2022-12-29T17:05:49;5.80;99.90
8313;DHT22;4194;43.408;24.626;2022-12-29T17:08:20;5.10;99.90
8313;DHT22;4194;43.408;24.626;2022-12-29T17:10:55;4.90;99.90
8313;DHT22;4194;43.408;24.626;2022-12-29T17:13:40;4.40;99.90
8313;DHT22;4194;43.408;24.626;2022-12-29T17:16:06;4.70;99.90
8313;DHT22;4194;43.408;24.626;2022-12-29T17:18:33;4.60;99.90
8313;DHT22;4194;43.408;24.626;2022-12-29T17:21:00;5.20;99.90
8313;DHT22;4194;43.408;24.626;2022-12-29T17:23:25;4.00;99.90
8313;DHT22;4194;43.408;24.626;2022-12-29T17:25:53;6.10;99.90
8313;DHT22;4194;43.408;24.626;2022-12-29T17:28:21;4.70;99.90
8313;DHT22;4194;43.408;24.626;2022-12-29T17:30:48;4.50;99.90
8313;DHT22;4194;43.408;24.626;2022-12-29T17:33:18;3.50;99.90
8313;DHT22;4194;43.408;24.626;2022-12-29T17:35:45;5.20;99.90
8313;DHT22;4194;43.408;24.626;2022-12-29T17:38:25;4.60;99.90
8313;DHT22;4194;43.408;24.626;2022-12-29T17:40:52;3.60;99.90
8313;DHT22;4194;43.408;24.626;2022-12-29T17:43:18;4.60;99.90
8313;DHT22;4194;43.408;24.626;2022-12-29T17:45:53;4.40;99.90
8313;DHT22;4194;43.408;24.626;2022-12-29T17:48:21;3.40;99.90
8313;DHT22;4194;43.408;24.626;2022-12-29T17:50:49;2.80;99.90
8313;DHT22;4194;43.408;24.626;2022-12-29T17:53:25;3.80;99.90
8313;DHT22;4194;43.408;24.626;2022-12-29T17:55:52;4.90;99.90
8313;DHT22;4194;43.408;24.626;2022-12-29T17:58:27;3.20;99.90
8313;DHT22;4194;43.408;24.626;2022-12-29T18:00:55;4.10;99.90
8313;DHT22;4194;43.408;24.626;2022-12-29T18:03:38;4.80;99.90
8313;DHT22;4194;43.408;24.626;2022-12-29T18:06:06;3.70;99.90
8313;DHT22;4194;43.408;24.626;2022-12-29T18:08:36;3.60;99.90
8313;DHT22;4194;43.408;24.626;2022-12-29T18:11:02;4.90;99.90
8313;DHT22;4194;43.408;24.626;2022-12-29T18:13:30;3.40;99.90
8313;DHT22;4194;43.408;24.626;2022-12-29T18:15:56;3.30;99.90
8313;DHT22;4194;43.408;24.626;2022-12-29T18:18:24;3.50;99.90
8313;DHT22;4194;43.408;24.626;2022-12-29T18:20:53;3.50;99.90
8313;DHT22;4194;43.408;24.626;2022-12-29T18:23:28;3.90;99.90
8313;DHT22;4194;43.408;24.626;2022-12-29T18:26:06;3.40;99.90
8313;DHT22;4194;43.408;24.626;2022-12-29T18:28:35;4.40;99.90
8313;DHT22;4194;43.408;24.626;2022-12-29T18:31:01;3.40;99.90
8313;DHT22;4194;43.408;24.626;2022-12-29T18:33:28;4.00;99.90
8313;DHT22;4194;43.408;24.626;2022-12-29T18:35:59;4.70;99.90
8313;DHT22;4194;43.408;24.626;2022-12-29T18:38:25;2.90;99.90
8313;DHT22;4194;43.408;24.626;2022-12-29T18:40:51;2.90;99.90
8313;DHT22;4194;43.408;24.626;2022-12-29T18:43:18;2.40;99.90
8313;DHT22;4194;43.408;24.626;2022-12-29T18:45:44;3.00;99.90
8313;DHT22;4194;43.408;24.626;2022-12-29T18:48:14;4.40;99.90
8313;DHT22;4194;43.408;24.626;2022-12-29T18:50:40;3.70;99.90
8313;DHT22;4194;43.408;24.626;2022-12-29T18:53:06;4.30;99.90
8313;DHT22;4194;43.408;24.626;2022-12-29T18:55:31;3.90;99.90
8313;DHT22;4194;43.408;24.626;2022-12-29T18:57:57;3.30;99.90
8313;DHT22;4194;43.408;24.626;2022-12-29T19:00:23;4.00;99.90
8313;DHT22;4194;43.408;24.626;2022-12-29T19:02:50;3.30;99.90
8313;DHT22;4194;43.408;24.626;2022-12-29T19:07:45;3.40;99.90
8313;DHT22;4194;43.408;24.626;2022-12-29T19:10:11;3.10;99.90
8313;DHT22;4194;43.408;24.626;2022-12-29T19:12:36;3.50;99.90
8313;DHT22;4194;43.408;24.626;2022-12-29T19:15:02;3.20;99.90
8313;DHT22;4194;43.408;24.626;2022-12-29T19:17:32;3.20;99.90
8313;DHT22;4194;43.408;24.626;2022-12-29T19:20:00;4.30;99.90
8313;DHT22;4194;43.408;24.626;2022-12-29T19:22:25;3.30;99.90
8313;DHT22;4194;43.408;24.626;2022-12-29T19:24:51;4.00;99.90
8313;DHT22;4194;43.408;24.626;2022-12-29T19:27:17;3.20;99.90
8313;DHT22;4194;43.408;24.626;2022-12-29T19:29:43;3.30;99.90
8313;DHT22;4194;43.408;24.626;2022-12-29T19:32:08;4.10;99.90